AirNav   Duncan Aviation - Near you to keep you flying
 
 828 users online  

57NC Sossamon Field Airport
Bryson City, North Carolina, USA

GOING TO BRYSON CITY?


FAA INFORMATION EFFECTIVE 03 NOVEMBER 2022

Location

FAA Identifier: 57NC
Lat/Long: 35-25-35.3440N 083-27-29.5730W
35-25.589067N 083-27.492883W
35.4264844,-83.4582147
(estimated)
Elevation: 1940 ft. / 591 m (estimated)
Variation: 03W (1985)
From city: 1 mile W of BRYSON CITY, NC
Time zone: UTC -5 (UTC -4 during Daylight Saving Time)
Zip code: 28713

Airport Operations

Airport use: Private use. Permission required prior to landing
Activation date: 08/1958
Control tower: no
ARTCC: ATLANTA CENTER
FSS: RALEIGH FLIGHT SERVICE STATION
NOTAMs facility: FDC (NOTAM-D service not available)
Attendance: MON-FRI DAYLIGHT HOURS
Wind indicator: yes
Segmented circle: no

Airport Communications

WX AWOS-3 at 1A5 (12 nm S): 118.225 (828-349-3156)
WX AWOS-3PT at 24A (14 nm SE): 118.9 (828-631-3389)

Nearby radio navigation aids

VOR radial/distance  VOR name  Freq  Var
SOTr226/29.5SNOWBIRD VORTAC108.8004W
VXVr146/35.7VOLUNTEER VORTAC116.4003W
HRSr038/36.7HARRIS VORTAC109.8000E

Airport Services

Parking: hangars
Airframe service: NONE
Powerplant service: NONE
Bottled oxygen: NONE
Bulk oxygen: NONE

Runway Information

Runway 10/28

Dimensions: 2265 x 50 ft. / 690 x 15 m
Surface: asphalt
RUNWAY 10  RUNWAY 28
Traffic pattern: leftleft

Airport Ownership and Management from official FAA records

Ownership: Privately-owned
Owner: LEROY SOSSAMON
900 LEMMON ROAD
BRYSON CITY, NC 28713
Phone 828-488-2450
Manager: LEROY SOSSAMON
900 LEMMON ROAD
BRYSON CITY, NC 28713
Phone 828-488-2450

Airport Operational Statistics

Aircraft based on the field: 4
Single engine airplanes: 2
Multi engine airplanes: 2
    
Aircraft operations: avg 29/week *
67% local general aviation
33% transient general aviation
* for 12-month period ending 26 June 1981

Additional Remarks

A58-28 +8 FT TREES 50 FT FROM THLD ON SIDES.
USE CARE ON RY 28 APCH DUE TO POSSIBLE DOWNDRAFT, ESP DURG SPRING.
FOR CD CTC ATLANTA ARTCC AT 770-210-7692.

Instrument Procedures

There are no published instrument procedures at 57NC.

Some nearby airports with instrument procedures:

1A5 - Macon County Airport (12 nm S)
24A - Jackson County Airport (14 nm SE)
KRHP - Western Carolina Regional Airport (24 nm SW)
KGKT - Gatlinburg-Pigeon Forge Airport (26 nm N)
KTYS - Mc Ghee Tyson Airport (35 nm NW)
 
Loc | Ops | Rwys | IFR | FBO | Links
Com | Nav | Svcs | Stats | Notes
Area around 57NC (Sossamon Field Airport)
 
Road maps at: MapQuest Bing Google
 
Aerial photo
WARNING: Photo may not be current or correct
Aerial photo of 57NC (Sossamon Field Airport)
Photo by Lora Lucas
Photo taken 17-Sep-2005

Do you have a better or more recent aerial photo of Sossamon Field Airport that you would like to share? If so, please send us your photo.

 
Sectional chart

 
Airport distance calculator
Flying to Sossamon Field Airport? Find the distance to fly.

From to 57NC

Sunrise and sunset
Times for 28-Nov-2022
 Local
(UTC-5)
 Zulu
(UTC)
Morning civil twilight06:5511:55
Sunrise07:2312:23
Sunset17:2122:21
Evening civil twilight17:4922:49

Current date and time
Zulu (UTC)  28-Nov-2022 13:03:17
Local (UTC-5)  28-Nov-2022 08:03:17
 
METAR
K1A5 
12nm S 
281255Z AUTO 03006KT 10SM OVC031 09/03 A2994 RMK AO2 T00920031
K24A 
14nm SE 
281255Z AUTO 00000KT 10SM OVC023 07/03 A2992 RMK AO2 T00690028
KRHP 
24nm SW 
281255Z AUTO 00000KT 10SM OVC034 08/05 A2993 RMK AO2 T00790046
TAF
KTYS 
35nm NW 
281128Z 2812/2912 25008KT P6SM BKN025 FM281800 26004KT P6SM BKN050 FM290200 11003KT P6SM BKN250
NOTAMs
Click for the latest NOTAMs
NOTAMs are issued by the DoD/FAA and will open in a separate window not controlled by AirNav.

 

 
 

Would you like to see your business listed on this page?

 If your business provides an interesting product or service to pilots, flight crews, aircraft, or users of the Sossamon Field Airport, you should consider listing it here.  To start the listing process, click on the button below
 
Add a business
 

Other Pages about Sossamon Field Airport

Update a link
 
Copyright © AirNav, LLC. All rights reserved. Privacy Policy  Contact